createdAt,value
2023-05-18T00:02:26.858Z,83.63
2023-05-18T00:05:34.809Z,84.35
2023-05-18T00:08:39.591Z,86.09
2023-05-18T00:11:45.817Z,87.55
2023-05-18T00:14:49.534Z,88.79
2023-05-18T00:17:53.650Z,91.43
2023-05-18T00:21:00.800Z,91.58
2023-05-18T00:24:04.679Z,93.32
2023-05-18T00:27:07.832Z,94.84
2023-05-18T00:30:12.140Z,94.68
2023-05-18T00:33:15.420Z,94.69
2023-05-18T00:36:18.627Z,95.23
2023-05-18T00:39:22.215Z,95.24
2023-05-18T00:42:25.468Z,95.57
2023-05-18T00:45:29.285Z,96.80
2023-05-18T00:48:32.839Z,96.65
2023-05-18T00:51:36.165Z,97.63
2023-05-18T00:54:39.407Z,98.26
2023-05-18T00:57:44.769Z,97.48
2023-05-18T01:00:50.999Z,97.06
2023-05-18T01:03:56.925Z,98.93
2023-05-18T01:07:07.131Z,98.77
2023-05-18T01:10:12.376Z,99.59
2023-05-18T01:13:24.361Z,98.78
2023-05-18T01:16:37.630Z,98.41
2023-05-18T01:20:17.385Z,99.44
2023-05-18T01:23:57.702Z,98.61
2023-05-18T01:27:08.968Z,99.12
2023-05-18T01:30:15.823Z,99.76
2023-05-18T01:33:20.338Z,99.51
2023-05-18T01:36:23.653Z,100.00
2023-05-18T01:39:30.514Z,100.00
2023-05-18T01:42:43.631Z,100.00
2023-05-18T01:45:51.459Z,100.00
2023-05-18T01:49:02.817Z,100.00
2023-05-18T01:52:25.136Z,100.00
2023-05-18T01:55:31.287Z,100.00
2023-05-18T01:58:37.219Z,100.00
2023-05-18T02:01:40.416Z,100.00
2023-05-18T02:04:43.882Z,100.00
2023-05-18T02:07:48.236Z,100.00
2023-05-18T02:10:52.079Z,100.00
2023-05-18T02:13:55.146Z,100.00
2023-05-18T02:16:58.221Z,100.00
2023-05-18T02:20:01.236Z,100.00
2023-05-18T02:23:04.471Z,100.00
2023-05-18T02:26:07.456Z,100.00
2023-05-18T02:29:12.366Z,100.00
2023-05-18T02:32:15.656Z,100.00
2023-05-18T02:35:20.566Z,100.00
2023-05-18T02:38:24.434Z,100.00
2023-05-18T02:41:27.842Z,100.00
2023-05-18T02:44:32.434Z,100.00
2023-05-18T02:48:17.170Z,100.00
2023-05-18T02:51:20.506Z,100.00
2023-05-18T02:54:24.806Z,100.00
2023-05-18T02:57:28.034Z,100.00
2023-05-18T03:00:37.091Z,100.00
2023-05-18T03:03:42.620Z,100.00
2023-05-18T03:06:47.602Z,100.00
2023-05-18T03:10:05.764Z,100.00
2023-05-18T03:13:12.728Z,100.00
2023-05-18T03:16:22.281Z,100.00
2023-05-18T03:19:35.819Z,100.00
2023-05-18T03:22:40.651Z,100.00
2023-05-18T03:25:55.483Z,100.00
2023-05-18T03:29:04.918Z,100.00
2023-05-18T03:32:09.606Z,100.00
2023-05-18T03:35:21.795Z,100.00
2023-05-18T03:38:29.575Z,100.00
2023-05-18T03:41:45.630Z,100.00
2023-05-18T03:44:51.339Z,100.00
2023-05-18T03:47:57.917Z,100.00
2023-05-18T03:51:10.793Z,100.00
2023-05-18T03:54:26.685Z,100.00
2023-05-18T03:57:34.445Z,100.00
2023-05-18T04:00:48.038Z,100.00
2023-05-18T04:04:03.609Z,100.00
2023-05-18T04:07:28.716Z,100.00
2023-05-18T04:10:46.908Z,100.00
2023-05-18T04:13:54.012Z,100.00
2023-05-18T04:17:09.840Z,100.00
2023-05-18T04:20:28.662Z,100.00
2023-05-18T04:23:36.154Z,100.00
2023-05-18T04:26:39.789Z,100.00
2023-05-18T04:29:44.546Z,100.00
2023-05-18T04:32:48.504Z,100.00
2023-05-18T04:35:55.955Z,100.00
2023-05-18T04:39:08.622Z,100.00
2023-05-18T04:42:21.878Z,100.00
2023-05-18T04:45:32.305Z,100.00
2023-05-18T04:48:42.454Z,100.00
2023-05-18T04:52:02.821Z,100.00
2023-05-18T04:55:15.619Z,100.00
2023-05-18T04:58:34.745Z,100.00
2023-05-18T05:01:41.719Z,100.00
2023-05-18T05:04:45.902Z,100.00
2023-05-18T05:08:02.895Z,100.00
2023-05-18T05:11:11.388Z,100.00
2023-05-18T05:14:27.978Z,100.00
2023-05-18T05:17:58.302Z,100.00
2023-05-18T05:21:09.105Z,100.00
2023-05-18T05:24:22.108Z,100.00
2023-05-18T05:27:29.354Z,100.00
2023-05-18T05:34:31.521Z,100.00
2023-05-18T05:37:45.511Z,100.00
2023-05-18T05:40:55.343Z,100.00
2023-05-18T05:44:08.553Z,100.00
2023-05-18T05:47:23.941Z,100.00
2023-05-18T05:50:50.855Z,100.00
2023-05-18T05:54:50.117Z,100.00
2023-05-18T06:04:27.488Z,100.00
2023-05-18T06:55:54.276Z,100.00
2023-05-18T06:58:27.672Z,98.95
2023-05-18T07:02:34.648Z,99.06
2023-05-18T07:05:55.067Z,100.00
2023-05-18T07:09:07.756Z,100.00
2023-05-18T07:12:16.681Z,100.00
2023-05-18T07:15:27.333Z,100.00
2023-05-18T07:18:36.454Z,100.00
2023-05-18T07:21:54.283Z,100.00
2023-05-18T07:25:21.882Z,100.00
2023-05-18T07:28:30.276Z,100.00
2023-05-18T07:31:41.594Z,100.00
2023-05-18T07:34:48.240Z,100.00
2023-05-18T07:37:58.958Z,100.00
2023-05-18T07:41:55.364Z,100.00
2023-05-18T07:45:01.512Z,100.00
2023-05-18T07:48:10.712Z,100.00
2023-05-18T07:51:35.781Z,100.00
2023-05-18T07:54:44.387Z,100.00
2023-05-18T08:03:43.286Z,100.00
2023-05-18T08:07:02.513Z,100.00
2023-05-18T08:10:13.385Z,100.00
2023-05-18T08:13:48.690Z,100.00
2023-05-18T08:21:06.058Z,100.00
2023-05-18T08:28:47.165Z,100.00
2023-05-18T08:37:21.803Z,100.00
2023-05-18T08:51:18.579Z,100.00
2023-05-18T09:13:27.808Z,98.49
2023-05-18T09:16:31.740Z,99.36
2023-05-18T09:19:37.540Z,98.12
2023-05-18T09:22:46.048Z,98.09
2023-05-18T09:25:53.934Z,95.09
2023-05-18T09:29:21.533Z,93.56
2023-05-18T09:32:28.433Z,95.67
2023-05-18T09:35:45.791Z,95.58
2023-05-18T09:38:55.108Z,95.28
2023-05-18T09:42:00.434Z,97.73
2023-05-18T09:45:05.250Z,95.52
2023-05-18T09:48:11.970Z,95.43
2023-05-18T09:51:21.155Z,94.79
2023-05-18T09:58:22.072Z,87.35
2023-05-18T10:01:29.192Z,87.71
2023-05-18T10:04:42.226Z,85.90
2023-05-18T10:07:52.698Z,85.34
2023-05-18T10:10:57.178Z,82.35
2023-05-18T10:14:07.313Z,80.93
2023-05-18T10:17:17.816Z,80.88
2023-05-18T10:20:37.266Z,78.81
2023-05-18T10:24:06.841Z,79.30
2023-05-18T10:27:18.559Z,80.92
2023-05-18T10:30:29.515Z,79.89
2023-05-18T10:33:37.329Z,81.79
2023-05-18T10:36:44.743Z,81.57
2023-05-18T10:39:51.539Z,81.02
2023-05-18T10:43:03.470Z,80.26
2023-05-18T10:46:12.630Z,75.91
2023-05-18T10:49:26.283Z,78.50
2023-05-18T10:52:43.098Z,77.90
2023-05-18T10:55:55.815Z,72.56
2023-05-18T10:59:08.206Z,71.84
2023-05-18T11:02:17.412Z,74.76
2023-05-18T11:05:30.500Z,69.45
2023-05-18T11:08:50.938Z,72.71
2023-05-18T11:12:03.039Z,74.71
2023-05-18T11:15:14.324Z,71.79
2023-05-18T11:18:22.598Z,71.56
2023-05-18T11:22:03.229Z,69.94
2023-05-18T11:25:30.930Z,71.89
2023-05-18T11:28:51.913Z,73.13
2023-05-18T11:32:44.065Z,73.62
2023-05-18T11:36:13.125Z,70.98
2023-05-18T11:39:37.660Z,74.19
2023-05-18T11:43:05.918Z,73.85
2023-05-18T11:46:25.580Z,74.76
2023-05-18T11:50:05.533Z,75.93
2023-05-18T11:53:55.599Z,75.41
2023-05-18T11:57:46.361Z,76.63
2023-05-18T12:01:52.866Z,77.24
2023-05-18T12:05:03.811Z,74.84
2023-05-18T12:08:08.201Z,76.90
2023-05-18T12:11:13.912Z,76.56
2023-05-18T12:14:20.265Z,76.89
2023-05-18T12:17:53.173Z,77.38
2023-05-18T12:20:59.809Z,76.51
2023-05-18T12:24:05.182Z,77.89
2023-05-18T12:27:13.853Z,78.52
2023-05-18T12:30:20.260Z,77.60
2023-05-18T12:33:27.046Z,77.46
2023-05-18T12:36:31.456Z,77.96
2023-05-18T12:39:37.208Z,77.54
2023-05-18T12:43:15.544Z,76.83
2023-05-18T12:46:20.212Z,77.23
2023-05-18T12:49:24.151Z,78.15
2023-05-18T12:52:30.865Z,77.92
2023-05-18T12:55:35.075Z,78.72
2023-05-18T12:58:41.381Z,78.81
2023-05-18T13:01:55.707Z,79.09
2023-05-18T13:05:06.650Z,80.41
2023-05-18T13:08:22.395Z,81.03
2023-05-18T13:11:28.210Z,81.43
2023-05-18T13:14:38.544Z,81.24
2023-05-18T13:17:59.812Z,81.81
2023-05-18T13:21:07.981Z,81.56
2023-05-18T13:24:11.475Z,82.02
2023-05-18T13:27:14.626Z,82.18
2023-05-18T13:30:18.317Z,82.25
2023-05-18T13:33:21.743Z,82.96
2023-05-18T13:36:26.406Z,83.23
2023-05-18T13:39:35.253Z,82.81
2023-05-18T13:42:41.511Z,82.79
2023-05-18T13:45:48.328Z,83.91
2023-05-18T13:48:52.774Z,84.06
2023-05-18T13:51:59.493Z,83.42
2023-05-18T13:55:05.227Z,83.68
2023-05-18T13:58:11.881Z,83.51
2023-05-18T14:01:18.448Z,83.67
2023-05-18T14:04:22.121Z,82.73
2023-05-18T14:07:25.486Z,82.90
2023-05-18T14:10:29.125Z,82.66
2023-05-18T14:13:32.773Z,83.21
2023-05-18T14:16:37.338Z,83.84
2023-05-18T14:19:40.669Z,83.15
2023-05-18T14:22:44.522Z,83.08
2023-05-18T14:25:50.290Z,83.06
2023-05-18T14:28:53.850Z,83.53
2023-05-18T14:31:58.647Z,82.25
2023-05-18T14:35:02.307Z,82.18
2023-05-18T14:38:06.050Z,83.19
2023-05-18T14:41:09.655Z,83.68
2023-05-18T14:44:14.160Z,83.76
2023-05-18T14:47:18.258Z,84.12
2023-05-18T14:50:24.099Z,84.39
2023-05-18T14:53:28.094Z,85.06
2023-05-18T14:56:31.578Z,84.70
2023-05-18T14:59:35.155Z,86.78
2023-05-18T15:02:39.596Z,86.64
2023-05-18T15:05:46.088Z,87.06
2023-05-18T15:08:50.020Z,89.07
2023-05-18T15:11:54.315Z,88.58
2023-05-18T15:14:59.237Z,90.19
2023-05-18T15:18:03.475Z,89.12
2023-05-18T15:21:13.911Z,89.68
2023-05-18T15:24:18.764Z,90.12
2023-05-18T15:27:37.273Z,90.99
2023-05-18T15:30:50.363Z,90.26
2023-05-18T15:34:06.115Z,90.57
2023-05-18T15:37:17.109Z,90.68
2023-05-18T15:40:30.134Z,90.53
2023-05-18T15:43:37.042Z,90.87
2023-05-18T15:46:49.430Z,90.17
2023-05-18T15:49:54.326Z,91.23
2023-05-18T15:53:00.030Z,90.00
2023-05-18T15:56:04.275Z,90.49
2023-05-18T15:59:09.602Z,90.26
2023-05-18T16:02:19.156Z,90.90
2023-05-18T16:05:23.430Z,88.94
2023-05-18T16:08:26.776Z,88.82
2023-05-18T16:11:30.189Z,89.03
2023-05-18T16:14:36.437Z,88.51
2023-05-18T16:17:39.657Z,89.11
2023-05-18T16:20:42.729Z,88.27
2023-05-18T16:23:46.951Z,88.29
2023-05-18T16:27:32.708Z,87.83
2023-05-18T16:30:38.106Z,87.68
2023-05-18T16:33:41.449Z,88.02
2023-05-18T16:36:45.031Z,87.66
2023-05-18T16:39:48.415Z,87.13
2023-05-18T16:43:01.920Z,87.58
2023-05-18T16:46:05.219Z,87.16
2023-05-18T16:49:08.283Z,87.20
2023-05-18T16:52:11.513Z,87.37
2023-05-18T16:55:15.092Z,86.40
2023-05-18T16:58:31.565Z,86.64
2023-05-18T17:01:36.295Z,86.27
2023-05-18T17:04:45.730Z,86.20
2023-05-18T17:07:50.312Z,86.11
2023-05-18T17:10:54.015Z,86.52
2023-05-18T17:14:00.188Z,86.55
2023-05-18T17:17:06.062Z,86.53
2023-05-18T17:20:13.567Z,87.19
2023-05-18T17:23:19.081Z,86.26
2023-05-18T17:26:22.689Z,86.08
2023-05-18T17:29:29.551Z,86.83
2023-05-18T17:32:33.478Z,86.19
2023-05-18T17:35:36.913Z,86.27
2023-05-18T17:38:40.291Z,86.30
2023-05-18T17:41:44.692Z,85.95
2023-05-18T17:44:48.532Z,85.75
2023-05-18T17:47:52.758Z,85.90
2023-05-18T17:50:56.963Z,85.81
2023-05-18T17:54:03.062Z,86.09
2023-05-18T17:57:06.795Z,85.52
2023-05-18T18:00:10.681Z,85.72
2023-05-18T18:03:15.918Z,85.73
2023-05-18T18:06:28.483Z,85.44
2023-05-18T18:09:32.925Z,85.84
2023-05-18T18:12:36.187Z,85.57
2023-05-18T18:15:39.336Z,85.78
2023-05-18T18:18:42.532Z,85.69
2023-05-18T18:21:46.333Z,85.91
2023-05-18T18:24:49.692Z,85.69
2023-05-18T18:27:52.953Z,85.47
2023-05-18T18:30:57.286Z,85.43
2023-05-18T18:34:09.002Z,85.01
2023-05-18T18:37:12.830Z,84.99
2023-05-18T18:40:19.702Z,85.16
2023-05-18T18:43:28.273Z,85.19
2023-05-18T18:46:41.096Z,84.69
2023-05-18T18:49:57.370Z,85.33
2023-05-18T18:53:18.156Z,85.52
2023-05-18T18:56:50.693Z,86.46
2023-05-18T19:00:05.067Z,85.77
2023-05-18T19:03:26.629Z,85.76
2023-05-18T19:06:38.648Z,85.91
2023-05-18T19:09:46.195Z,85.90
2023-05-18T19:13:01.752Z,86.18
2023-05-18T19:16:15.346Z,86.28
2023-05-18T19:19:20.546Z,85.78
2023-05-18T19:22:25.706Z,85.43
2023-05-18T19:25:36.039Z,85.69
2023-05-18T19:28:43.230Z,86.08
2023-05-18T19:31:46.977Z,85.93
2023-05-18T19:34:50.879Z,86.07
2023-05-18T19:37:54.273Z,85.92
2023-05-18T19:40:57.853Z,86.12
2023-05-18T19:44:01.469Z,86.75
2023-05-18T19:47:05.504Z,86.04
2023-05-18T19:50:10.327Z,86.23
2023-05-18T19:53:13.917Z,85.90
2023-05-18T19:56:18.133Z,86.40
2023-05-18T19:59:24.043Z,86.24
2023-05-18T20:02:27.808Z,86.18
2023-05-18T20:05:31.161Z,86.46
2023-05-18T20:08:34.311Z,86.68
2023-05-18T20:11:38.334Z,86.51
2023-05-18T20:14:46.136Z,86.10
2023-05-18T20:17:49.731Z,86.40
2023-05-18T20:20:53.285Z,86.85
2023-05-18T20:23:56.254Z,87.15
2023-05-18T20:26:59.269Z,87.23
2023-05-18T20:30:02.416Z,87.26
2023-05-18T20:33:05.502Z,87.75
2023-05-18T20:36:09.473Z,87.45
2023-05-18T20:39:12.639Z,86.80
2023-05-18T20:42:15.918Z,86.69
2023-05-18T20:45:20.248Z,86.76
2023-05-18T20:48:27.044Z,87.21
2023-05-18T20:51:31.553Z,87.16
2023-05-18T20:54:34.767Z,87.52
2023-05-18T20:57:41.450Z,88.17
2023-05-18T21:00:45.753Z,87.81
2023-05-18T21:03:49.040Z,88.07
2023-05-18T21:06:53.021Z,88.12
2023-05-18T21:09:59.475Z,87.94
2023-05-18T21:13:03.259Z,87.72
2023-05-18T21:16:08.786Z,87.77
2023-05-18T21:19:17.032Z,88.08
2023-05-18T21:22:21.475Z,87.93
2023-05-18T21:25:26.724Z,87.47
2023-05-18T21:28:31.575Z,88.04
2023-05-18T21:31:36.186Z,87.65
2023-05-18T21:34:43.455Z,87.43
2023-05-18T21:37:49.978Z,87.57
2023-05-18T21:40:56.890Z,87.77
2023-05-18T21:44:03.694Z,87.75
2023-05-18T21:47:10.873Z,87.69
2023-05-18T21:50:14.433Z,87.28
2023-05-18T21:53:18.548Z,87.60
2023-05-18T21:56:21.928Z,87.79
2023-05-18T21:59:25.505Z,87.42
2023-05-18T22:02:28.629Z,87.53
2023-05-18T22:05:31.771Z,87.65
2023-05-18T22:08:34.772Z,87.51
2023-05-18T22:11:43.753Z,87.80
2023-05-18T22:14:47.129Z,87.53
2023-05-18T22:17:50.285Z,88.16
2023-05-18T22:20:55.323Z,88.24
2023-05-18T22:23:58.600Z,88.24
2023-05-18T22:27:03.217Z,88.62
2023-05-18T22:30:08.347Z,87.48
2023-05-18T22:33:11.368Z,88.02
2023-05-18T22:36:14.917Z,88.63
2023-05-18T22:39:17.862Z,88.40
2023-05-18T22:42:23.714Z,88.25
2023-05-18T22:45:26.957Z,87.93
2023-05-18T22:48:32.028Z,87.65
2023-05-18T22:51:36.024Z,87.91
2023-05-18T22:54:39.292Z,88.22
2023-05-18T22:57:44.491Z,88.25
2023-05-18T23:00:47.654Z,88.29
2023-05-18T23:03:51.603Z,87.40
2023-05-18T23:06:54.873Z,87.74
2023-05-18T23:09:58.993Z,87.00
2023-05-18T23:13:02.465Z,87.14
2023-05-18T23:16:06.168Z,86.74
2023-05-18T23:19:13.989Z,87.17
2023-05-18T23:22:17.361Z,87.49
2023-05-18T23:25:20.267Z,87.18
2023-05-18T23:28:23.229Z,87.50
2023-05-18T23:31:27.271Z,88.08
2023-05-18T23:34:31.458Z,88.14
2023-05-18T23:37:39.195Z,88.51
2023-05-18T23:40:42.884Z,88.44
2023-05-18T23:43:46.457Z,88.10
2023-05-18T23:46:51.100Z,88.20
2023-05-18T23:49:55.287Z,86.99
2023-05-18T23:53:04.930Z,86.92
2023-05-18T23:56:08.619Z,86.95
2023-05-18T23:59:15.300Z,86.71
